sensor_id;sensor_type;location;lat;lon;timestamp;pressure;altitude;pressure_sealevel;temperature;humidity
60258;BME280;46115;44.484;11.314;2023-04-02T00:03:21;99250.31;;;13.79;59.77
60258;BME280;46115;44.484;11.314;2023-04-02T00:07:27;99243.00;;;13.60;59.81
60258;BME280;46115;44.484;11.314;2023-04-02T00:11:35;99245.88;;;13.68;59.62
60258;BME280;46115;44.484;11.314;2023-04-02T00:15:39;99250.13;;;13.60;59.85
60258;BME280;46115;44.484;11.314;2023-04-02T00:19:46;99237.91;;;13.68;60.17
60258;BME280;46115;44.484;11.314;2023-04-02T00:23:54;99237.88;;;13.80;59.55
60258;BME280;46115;44.484;11.314;2023-04-02T00:27:58;99239.53;;;13.60;60.10
60258;BME280;46115;44.484;11.314;2023-04-02T00:32:01;99243.34;;;13.67;59.80
60258;BME280;46115;44.484;11.314;2023-04-02T00:36:05;99246.97;;;13.66;59.22
60258;BME280;46115;44.484;11.314;2023-04-02T00:40:19;99241.22;;;13.61;59.81
60258;BME280;46115;44.484;11.314;2023-04-02T00:44:22;99246.19;;;13.54;60.06
60258;BME280;46115;44.484;11.314;2023-04-02T00:48:35;99249.28;;;13.59;59.52
60258;BME280;46115;44.484;11.314;2023-04-02T00:52:40;99248.75;;;13.77;58.68
60258;BME280;46115;44.484;11.314;2023-04-02T00:56:47;99254.06;;;13.88;58.80
60258;BME280;46115;44.484;11.314;2023-04-02T01:00:51;99250.81;;;13.73;58.98
60258;BME280;46115;44.484;11.314;2023-04-02T01:04:55;99254.56;;;14.14;58.56
60258;BME280;46115;44.484;11.314;2023-04-02T01:09:18;99256.09;;;14.27;57.61
60258;BME280;46115;44.484;11.314;2023-04-02T01:13:30;99262.88;;;14.41;57.52
60258;BME280;46115;44.484;11.314;2023-04-02T01:17:53;99261.59;;;14.03;58.64
60258;BME280;46115;44.484;11.314;2023-04-02T01:22:04;99271.66;;;14.21;57.97
60258;BME280;46115;44.484;11.314;2023-04-02T01:26:13;99277.28;;;14.07;58.75
60258;BME280;46115;44.484;11.314;2023-04-02T01:30:19;99285.25;;;14.07;58.40
60258;BME280;46115;44.484;11.314;2023-04-02T01:34:24;99285.97;;;14.09;57.92
60258;BME280;46115;44.484;11.314;2023-04-02T01:38:33;99287.84;;;14.29;57.37
60258;BME280;46115;44.484;11.314;2023-04-02T01:42:40;99290.09;;;14.45;56.62
60258;BME280;46115;44.484;11.314;2023-04-02T01:46:48;99289.47;;;13.43;58.70
60258;BME280;46115;44.484;11.314;2023-04-02T01:50:52;99260.19;;;13.34;58.53
60258;BME280;46115;44.484;11.314;2023-04-02T01:54:56;99284.34;;;13.85;58.38
60258;BME280;46115;44.484;11.314;2023-04-02T01:59:00;99289.47;;;14.09;57.80
60258;BME280;46115;44.484;11.314;2023-04-02T02:03:06;99291.22;;;13.99;58.14
60258;BME280;46115;44.484;11.314;2023-04-02T02:07:13;99259.69;;;13.40;59.68
60258;BME280;46115;44.484;11.314;2023-04-02T02:11:20;99296.84;;;13.62;60.43
60258;BME280;46115;44.484;11.314;2023-04-02T02:15:23;99298.97;;;13.80;59.23
60258;BME280;46115;44.484;11.314;2023-04-02T02:19:30;99309.47;;;13.81;59.85
60258;BME280;46115;44.484;11.314;2023-04-02T02:23:34;99306.44;;;13.97;59.48
60258;BME280;46115;44.484;11.314;2023-04-02T02:27:47;99298.53;;;14.07;59.60
60258;BME280;46115;44.484;11.314;2023-04-02T02:31:53;99303.44;;;13.90;59.25
60258;BME280;46115;44.484;11.314;2023-04-02T02:36:02;99300.13;;;14.41;58.49
60258;BME280;46115;44.484;11.314;2023-04-02T02:40:12;99280.97;;;13.94;57.94
60258;BME280;46115;44.484;11.314;2023-04-02T02:44:19;99316.97;;;13.76;57.95
60258;BME280;46115;44.484;11.314;2023-04-02T02:48:33;99301.50;;;13.81;59.03
60258;BME280;46115;44.484;11.314;2023-04-02T02:52:45;99322.25;;;13.98;59.08
60258;BME280;46115;44.484;11.314;2023-04-02T02:56:53;99325.59;;;14.12;59.91
60258;BME280;46115;44.484;11.314;2023-04-02T03:00:58;99330.22;;;13.98;59.40
60258;BME280;46115;44.484;11.314;2023-04-02T03:05:03;99339.31;;;13.62;61.56
60258;BME280;46115;44.484;11.314;2023-04-02T03:09:13;99330.97;;;13.78;58.66
60258;BME280;46115;44.484;11.314;2023-04-02T03:13:22;99339.53;;;13.82;59.32
60258;BME280;46115;44.484;11.314;2023-04-02T03:17:29;99343.56;;;13.54;59.38
60258;BME280;46115;44.484;11.314;2023-04-02T03:21:39;99336.94;;;14.14;59.10
60258;BME280;46115;44.484;11.314;2023-04-02T03:25:52;99345.38;;;13.53;60.83
60258;BME280;46115;44.484;11.314;2023-04-02T03:30:13;99341.97;;;13.62;60.60
60258;BME280;46115;44.484;11.314;2023-04-02T03:34:21;99345.22;;;13.66;61.51
60258;BME280;46115;44.484;11.314;2023-04-02T03:38:29;99337.63;;;13.61;61.35
60258;BME280;46115;44.484;11.314;2023-04-02T03:42:40;99346.19;;;13.20;62.37
60258;BME280;46115;44.484;11.314;2023-04-02T03:46:48;99359.47;;;13.42;61.80
60258;BME280;46115;44.484;11.314;2023-04-02T03:51:01;99367.88;;;14.03;59.88
60258;BME280;46115;44.484;11.314;2023-04-02T03:55:10;99381.06;;;13.71;61.10
60258;BME280;46115;44.484;11.314;2023-04-02T03:59:20;99378.28;;;13.28;62.72
60258;BME280;46115;44.484;11.314;2023-04-02T04:03:35;99386.72;;;13.45;62.54
60258;BME280;46115;44.484;11.314;2023-04-02T04:07:40;99379.38;;;13.26;62.80
60258;BME280;46115;44.484;11.314;2023-04-02T04:11:46;99399.19;;;13.89;61.22
60258;BME280;46115;44.484;11.314;2023-04-02T04:15:54;99401.34;;;13.50;62.12
60258;BME280;46115;44.484;11.314;2023-04-02T04:20:01;99402.16;;;13.28;62.90
60258;BME280;46115;44.484;11.314;2023-04-02T04:24:16;99403.41;;;13.11;63.54
60258;BME280;46115;44.484;11.314;2023-04-02T04:28:26;99401.94;;;13.07;63.07
60258;BME280;46115;44.484;11.314;2023-04-02T04:32:37;99410.84;;;13.19;62.89
60258;BME280;46115;44.484;11.314;2023-04-02T04:36:55;99413.03;;;13.01;62.84
60258;BME280;46115;44.484;11.314;2023-04-02T04:41:09;99424.41;;;13.15;62.80
60258;BME280;46115;44.484;11.314;2023-04-02T04:45:30;99436.69;;;13.39;61.60
60258;BME280;46115;44.484;11.314;2023-04-02T04:49:42;99449.59;;;12.50;63.57
60258;BME280;46115;44.484;11.314;2023-04-02T04:53:50;99451.25;;;12.99;61.92
60258;BME280;46115;44.484;11.314;2023-04-02T04:58:00;99459.34;;;12.73;63.23
60258;BME280;46115;44.484;11.314;2023-04-02T05:02:09;99433.06;;;11.72;65.43
60258;BME280;46115;44.484;11.314;2023-04-02T05:06:24;99440.03;;;12.11;63.77
60258;BME280;46115;44.484;11.314;2023-04-02T05:10:29;99470.97;;;12.60;62.73
60258;BME280;46115;44.484;11.314;2023-04-02T05:14:37;99476.78;;;12.65;62.48
60258;BME280;46115;44.484;11.314;2023-04-02T05:18:45;99493.09;;;12.35;63.84
60258;BME280;46115;44.484;11.314;2023-04-02T05:22:56;99495.59;;;12.49;62.20
60258;BME280;46115;44.484;11.314;2023-04-02T05:27:05;99501.53;;;12.53;62.58
60258;BME280;46115;44.484;11.314;2023-04-02T05:31:14;99511.91;;;12.79;61.66
60258;BME280;46115;44.484;11.314;2023-04-02T05:35:20;99513.09;;;12.52;63.23
60258;BME280;46115;44.484;11.314;2023-04-02T05:39:28;99521.56;;;12.57;62.29
60258;BME280;46115;44.484;11.314;2023-04-02T05:43:36;99515.06;;;12.11;64.12
60258;BME280;46115;44.484;11.314;2023-04-02T05:47:41;99509.31;;;12.30;64.25
60258;BME280;46115;44.484;11.314;2023-04-02T05:51:53;99517.31;;;12.54;62.88
60258;BME280;46115;44.484;11.314;2023-04-02T05:56:02;99509.81;;;12.72;62.73
60258;BME280;46115;44.484;11.314;2023-04-02T06:00:15;99518.50;;;12.74;63.17
60258;BME280;46115;44.484;11.314;2023-04-02T06:04:25;99515.72;;;12.15;65.84
60258;BME280;46115;44.484;11.314;2023-04-02T06:08:33;99488.13;;;12.91;62.08
60258;BME280;46115;44.484;11.314;2023-04-02T06:12:42;99503.06;;;12.92;62.84
60258;BME280;46115;44.484;11.314;2023-04-02T06:16:47;99519.22;;;13.48;61.62
60258;BME280;46115;44.484;11.314;2023-04-02T06:20:50;99532.34;;;13.38;61.65
60258;BME280;46115;44.484;11.314;2023-04-02T06:24:57;99528.94;;;13.71;60.54
60258;BME280;46115;44.484;11.314;2023-04-02T06:29:06;99526.06;;;13.74;60.22
60258;BME280;46115;44.484;11.314;2023-04-02T06:33:12;99547.81;;;13.44;61.97
60258;BME280;46115;44.484;11.314;2023-04-02T06:37:23;99528.94;;;13.71;60.67
60258;BME280;46115;44.484;11.314;2023-04-02T06:41:39;99565.84;;;13.98;61.04
60258;BME280;46115;44.484;11.314;2023-04-02T06:46:04;99585.34;;;13.86;61.29
60258;BME280;46115;44.484;11.314;2023-04-02T06:50:43;99558.56;;;13.42;61.88
60258;BME280;46115;44.484;11.314;2023-04-02T06:54:47;99600.19;;;13.77;61.96
60258;BME280;46115;44.484;11.314;2023-04-02T06:58:50;99620.94;;;13.72;62.10
60258;BME280;46115;44.484;11.314;2023-04-02T07:02:56;99635.44;;;13.79;62.33
60258;BME280;46115;44.484;11.314;2023-04-02T07:07:01;99646.25;;;13.89;61.97
60258;BME280;46115;44.484;11.314;2023-04-02T07:11:08;99650.03;;;13.73;63.01
60258;BME280;46115;44.484;11.314;2023-04-02T07:15:14;99644.00;;;13.71;63.47
60258;BME280;46115;44.484;11.314;2023-04-02T07:19:20;99643.41;;;13.79;63.61
60258;BME280;46115;44.484;11.314;2023-04-02T07:23:26;99666.88;;;13.37;65.18
60258;BME280;46115;44.484;11.314;2023-04-02T07:27:29;99680.84;;;13.76;66.00
60258;BME280;46115;44.484;11.314;2023-04-02T07:31:32;99664.63;;;13.20;69.96
60258;BME280;46115;44.484;11.314;2023-04-02T07:35:35;99689.59;;;13.89;67.37
60258;BME280;46115;44.484;11.314;2023-04-02T07:39:38;99699.47;;;13.87;67.45
60258;BME280;46115;44.484;11.314;2023-04-02T07:43:41;99698.13;;;13.82;68.23
60258;BME280;46115;44.484;11.314;2023-04-02T07:47:43;99712.34;;;14.04;68.13
60258;BME280;46115;44.484;11.314;2023-04-02T07:51:47;99716.31;;;13.51;68.80
60258;BME280;46115;44.484;11.314;2023-04-02T07:55:50;99676.94;;;13.93;64.86
60258;BME280;46115;44.484;11.314;2023-04-02T07:59:53;99732.28;;;14.10;67.37
60258;BME280;46115;44.484;11.314;2023-04-02T08:03:56;99731.06;;;14.38;67.28
60258;BME280;46115;44.484;11.314;2023-04-02T08:08:00;99740.19;;;14.47;67.03
60258;BME280;46115;44.484;11.314;2023-04-02T08:12:03;99747.13;;;14.36;66.63
60258;BME280;46115;44.484;11.314;2023-04-02T08:16:06;99754.56;;;14.55;66.69
60258;BME280;46115;44.484;11.314;2023-04-02T08:20:13;99764.66;;;14.04;69.10
60258;BME280;46115;44.484;11.314;2023-04-02T08:24:17;99761.97;;;13.80;71.01
60258;BME280;46115;44.484;11.314;2023-04-02T08:28:21;99764.72;;;14.50;69.67
60258;BME280;46115;44.484;11.314;2023-04-02T08:32:23;99778.59;;;14.19;72.13
60258;BME280;46115;44.484;11.314;2023-04-02T08:36:32;99786.78;;;14.63;71.58
60258;BME280;46115;44.484;11.314;2023-04-02T08:40:38;99790.78;;;14.69;72.55
60258;BME280;46115;44.484;11.314;2023-04-02T08:44:51;99786.47;;;14.55;75.25
60258;BME280;46115;44.484;11.314;2023-04-02T08:49:00;99778.59;;;14.43;77.27
60258;BME280;46115;44.484;11.314;2023-04-02T08:53:06;99792.00;;;14.76;77.95
60258;BME280;46115;44.484;11.314;2023-04-02T08:57:18;99791.13;;;14.76;78.91
60258;BME280;46115;44.484;11.314;2023-04-02T09:01:33;99795.84;;;14.61;80.30
60258;BME280;46115;44.484;11.314;2023-04-02T09:05:39;99786.28;;;14.58;80.94
60258;BME280;46115;44.484;11.314;2023-04-02T09:09:46;99803.91;;;14.24;83.08
60258;BME280;46115;44.484;11.314;2023-04-02T09:13:54;99804.00;;;14.47;82.24
60258;BME280;46115;44.484;11.314;2023-04-02T09:18:01;99800.34;;;14.83;81.79
60258;BME280;46115;44.484;11.314;2023-04-02T09:22:10;99806.16;;;15.88;79.65
60258;BME280;46115;44.484;11.314;2023-04-02T09:26:19;99805.03;;;17.08;77.42
60258;BME280;46115;44.484;11.314;2023-04-02T09:30:32;99808.19;;;16.60;75.90
60258;BME280;46115;44.484;11.314;2023-04-02T09:34:41;99815.66;;;17.59;73.27
60258;BME280;46115;44.484;11.314;2023-04-02T09:38:57;99823.50;;;17.21;73.20
60258;BME280;46115;44.484;11.314;2023-04-02T09:43:02;99826.88;;;17.84;71.22
60258;BME280;46115;44.484;11.314;2023-04-02T09:47:22;99839.56;;;17.91;69.26
60258;BME280;46115;44.484;11.314;2023-04-02T09:51:27;99835.50;;;17.66;69.36
60258;BME280;46115;44.484;11.314;2023-04-02T09:55:31;99834.19;;;17.82;67.84
60258;BME280;46115;44.484;11.314;2023-04-02T09:59:34;99836.31;;;17.88;65.69
60258;BME280;46115;44.484;11.314;2023-04-02T10:03:42;99840.09;;;17.85;66.84
60258;BME280;46115;44.484;11.314;2023-04-02T10:07:46;99841.72;;;18.17;65.83
60258;BME280;46115;44.484;11.314;2023-04-02T10:11:49;99860.06;;;18.41;64.15
60258;BME280;46115;44.484;11.314;2023-04-02T10:15:56;99851.03;;;18.32;66.36
60258;BME280;46115;44.484;11.314;2023-04-02T10:20:04;99856.69;;;18.58;65.12
60258;BME280;46115;44.484;11.314;2023-04-02T10:24:13;99859.31;;;18.38;64.61
60258;BME280;46115;44.484;11.314;2023-04-02T10:28:24;99854.13;;;18.27;64.56
60258;BME280;46115;44.484;11.314;2023-04-02T10:32:29;99856.00;;;18.85;61.52
60258;BME280;46115;44.484;11.314;2023-04-02T10:36:44;99856.69;;;18.48;61.49
60258;BME280;46115;44.484;11.314;2023-04-02T10:40:54;99849.63;;;18.37;60.72
60258;BME280;46115;44.484;11.314;2023-04-02T10:45:01;99838.34;;;18.34;58.40
60258;BME280;46115;44.484;11.314;2023-04-02T10:49:13;99852.47;;;18.46;59.09
60258;BME280;46115;44.484;11.314;2023-04-02T10:53:32;99851.88;;;18.32;59.39
60258;BME280;46115;44.484;11.314;2023-04-02T10:57:39;99844.69;;;18.23;58.98
60258;BME280;46115;44.484;11.314;2023-04-02T11:01:43;99840.28;;;18.03;59.85
60258;BME280;46115;44.484;11.314;2023-04-02T11:05:49;99833.34;;;17.81;60.38
60258;BME280;46115;44.484;11.314;2023-04-02T11:09:55;99823.63;;;17.19;61.48
60258;BME280;46115;44.484;11.314;2023-04-02T11:14:01;99817.69;;;17.36;62.04
60258;BME280;46115;44.484;11.314;2023-04-02T11:18:04;99821.41;;;17.24;62.14
60258;BME280;46115;44.484;11.314;2023-04-02T11:22:13;99811.69;;;16.72;61.46
60258;BME280;46115;44.484;11.314;2023-04-02T11:26:33;99794.09;;;16.90;61.98
60258;BME280;46115;44.484;11.314;2023-04-02T11:30:38;99818.91;;;17.02;61.40
60258;BME280;46115;44.484;11.314;2023-04-02T11:35:02;99830.94;;;16.96;61.21
60258;BME280;46115;44.484;11.314;2023-04-02T11:39:08;99837.06;;;16.87;60.65
60258;BME280;46115;44.484;11.314;2023-04-02T11:52:26;99816.19;;;16.71;61.83
60258;BME280;46115;44.484;11.314;2023-04-02T11:56:34;99811.25;;;16.23;65.87
60258;BME280;46115;44.484;11.314;2023-04-02T12:05:19;99767.03;;;16.21;65.49
60258;BME280;46115;44.484;11.314;2023-04-02T12:09:26;99816.56;;;16.35;65.82
60258;BME280;46115;44.484;11.314;2023-04-02T12:14:05;99829.13;;;16.44;64.59
60258;BME280;46115;44.484;11.314;2023-04-02T12:18:14;99830.66;;;15.60;67.18
60258;BME280;46115;44.484;11.314;2023-04-02T12:22:19;99825.94;;;14.38;72.15
60258;BME280;46115;44.484;11.314;2023-04-02T12:26:30;99854.06;;;14.29;74.70
60258;BME280;46115;44.484;11.314;2023-04-02T12:30:37;99848.28;;;14.11;74.93
60258;BME280;46115;44.484;11.314;2023-04-02T12:34:44;99858.06;;;14.11;75.31
60258;BME280;46115;44.484;11.314;2023-04-02T12:38:48;99865.50;;;13.69;77.18
60258;BME280;46115;44.484;11.314;2023-04-02T12:42:52;99849.69;;;14.04;76.96
60258;BME280;46115;44.484;11.314;2023-04-02T12:46:56;99856.25;;;14.35;75.31
60258;BME280;46115;44.484;11.314;2023-04-02T12:50:59;99843.34;;;14.18;75.85
60258;BME280;46115;44.484;11.314;2023-04-02T12:55:04;99842.75;;;14.62;73.54
60258;BME280;46115;44.484;11.314;2023-04-02T12:59:29;99856.31;;;14.46;75.54
60258;BME280;46115;44.484;11.314;2023-04-02T13:03:31;99849.81;;;14.02;74.44
60258;BME280;46115;44.484;11.314;2023-04-02T13:07:34;99853.72;;;13.73;73.10
60258;BME280;46115;44.484;11.314;2023-04-02T13:11:38;99849.13;;;14.12;69.96
60258;BME280;46115;44.484;11.314;2023-04-02T13:15:42;99852.06;;;13.83;68.24
60258;BME280;46115;44.484;11.314;2023-04-02T13:19:46;99853.16;;;13.81;70.56
60258;BME280;46115;44.484;11.314;2023-04-02T13:23:48;99839.16;;;14.02;71.19
60258;BME280;46115;44.484;11.314;2023-04-02T13:27:50;99846.59;;;13.73;71.28
60258;BME280;46115;44.484;11.314;2023-04-02T13:31:57;99854.88;;;14.05;72.66
60258;BME280;46115;44.484;11.314;2023-04-02T13:35:59;99852.63;;;13.76;76.29
60258;BME280;46115;44.484;11.314;2023-04-02T13:40:02;99867.97;;;12.96;79.85
60258;BME280;46115;44.484;11.314;2023-04-02T13:44:04;99876.78;;;13.47;76.28
60258;BME280;46115;44.484;11.314;2023-04-02T13:48:12;99878.06;;;13.67;75.01
60258;BME280;46115;44.484;11.314;2023-04-02T13:52:16;99880.19;;;13.49;77.41
60258;BME280;46115;44.484;11.314;2023-04-02T13:56:18;99878.31;;;13.26;76.17
60258;BME280;46115;44.484;11.314;2023-04-02T14:00:23;99888.91;;;13.38;75.69
60258;BME280;46115;44.484;11.314;2023-04-02T14:04:29;99862.13;;;12.91;80.49
60258;BME280;46115;44.484;11.314;2023-04-02T14:08:43;99859.50;;;13.29;76.70
60258;BME280;46115;44.484;11.314;2023-04-02T14:13:02;99852.25;;;13.05;79.14
60258;BME280;46115;44.484;11.314;2023-04-02T14:17:15;99826.69;;;12.92;72.61
60258;BME280;46115;44.484;11.314;2023-04-02T14:21:31;99825.13;;;13.77;73.14
60258;BME280;46115;44.484;11.314;2023-04-02T14:25:41;99824.88;;;13.05;72.06
60258;BME280;46115;44.484;11.314;2023-04-02T14:29:48;99849.53;;;13.20;75.72
60258;BME280;46115;44.484;11.314;2023-04-02T14:33:57;99864.16;;;13.38;72.60
60258;BME280;46115;44.484;11.314;2023-04-02T14:38:10;99845.78;;;13.60;76.65
60258;BME280;46115;44.484;11.314;2023-04-02T14:42:18;99819.03;;;13.38;70.14
60258;BME280;46115;44.484;11.314;2023-04-02T14:46:24;99783.84;;;13.84;71.30
60258;BME280;46115;44.484;11.314;2023-04-02T14:50:30;99832.28;;;13.87;72.06
60258;BME280;46115;44.484;11.314;2023-04-02T14:54:39;99818.81;;;13.41;73.38
60258;BME280;46115;44.484;11.314;2023-04-02T14:58:53;99828.03;;;13.48;69.95
60258;BME280;46115;44.484;11.314;2023-04-02T15:03:04;99813.44;;;13.30;69.30
60258;BME280;46115;44.484;11.314;2023-04-02T15:07:16;99815.50;;;13.87;66.68
60258;BME280;46115;44.484;11.314;2023-04-02T15:11:25;99809.56;;;13.83;68.37
60258;BME280;46115;44.484;11.314;2023-04-02T15:15:35;99805.81;;;13.98;68.22
60258;BME280;46115;44.484;11.314;2023-04-02T15:19:41;99821.34;;;14.40;66.85
60258;BME280;46115;44.484;11.314;2023-04-02T15:23:51;99836.28;;;14.05;68.53
60258;BME280;46115;44.484;11.314;2023-04-02T15:28:09;99820.16;;;14.20;66.77
60258;BME280;46115;44.484;11.314;2023-04-02T15:32:23;99814.34;;;14.39;65.67
60258;BME280;46115;44.484;11.314;2023-04-02T15:41:13;99816.69;;;14.43;63.23
60258;BME280;46115;44.484;11.314;2023-04-02T15:45:25;99817.19;;;14.24;64.98
60258;BME280;46115;44.484;11.314;2023-04-02T15:49:38;99822.03;;;14.54;61.53
60258;BME280;46115;44.484;11.314;2023-04-02T15:53:46;99834.28;;;14.20;61.83
60258;BME280;46115;44.484;11.314;2023-04-02T15:58:14;99830.53;;;14.59;61.19
60258;BME280;46115;44.484;11.314;2023-04-02T16:02:39;99829.63;;;14.24;59.51
60258;BME280;46115;44.484;11.314;2023-04-02T16:07:18;99841.66;;;14.17;59.55
60258;BME280;46115;44.484;11.314;2023-04-02T16:11:21;99834.16;;;14.58;59.06
60258;BME280;46115;44.484;11.314;2023-04-02T16:15:27;99828.22;;;14.31;59.45
60258;BME280;46115;44.484;11.314;2023-04-02T16:19:34;99831.13;;;14.15;61.66
60258;BME280;46115;44.484;11.314;2023-04-02T16:23:41;99831.13;;;14.15;60.97
60258;BME280;46115;44.484;11.314;2023-04-02T16:27:46;99833.75;;;14.28;60.95
60258;BME280;46115;44.484;11.314;2023-04-02T16:31:56;99830.75;;;14.32;60.20
60258;BME280;46115;44.484;11.314;2023-04-02T16:36:14;99830.34;;;14.50;59.10
60258;BME280;46115;44.484;11.314;2023-04-02T16:40:26;99833.88;;;14.26;60.06
60258;BME280;46115;44.484;11.314;2023-04-02T16:44:40;99831.59;;;14.33;59.90
60258;BME280;46115;44.484;11.314;2023-04-02T16:48:49;99829.78;;;14.33;61.73
60258;BME280;46115;44.484;11.314;2023-04-02T16:52:58;99818.78;;;13.66;63.48
60258;BME280;46115;44.484;11.314;2023-04-02T16:57:14;99843.63;;;13.65;65.45
60258;BME280;46115;44.484;11.314;2023-04-02T17:01:22;99840.81;;;13.56;66.99
60258;BME280;46115;44.484;11.314;2023-04-02T17:05:29;99829.75;;;13.49;68.00
60258;BME280;46115;44.484;11.314;2023-04-02T17:09:38;99830.13;;;13.19;68.91
60258;BME280;46115;44.484;11.314;2023-04-02T17:13:46;99829.97;;;13.08;69.44
60258;BME280;46115;44.484;11.314;2023-04-02T17:17:52;99837.75;;;13.24;69.06
60258;BME280;46115;44.484;11.314;2023-04-02T17:21:59;99831.78;;;12.95;68.85
60258;BME280;46115;44.484;11.314;2023-04-02T17:26:06;99821.38;;;13.04;68.53
60258;BME280;46115;44.484;11.314;2023-04-02T17:30:14;99822.44;;;12.89;69.56
60258;BME280;46115;44.484;11.314;2023-04-02T17:34:17;99837.91;;;12.82;68.46
60258;BME280;46115;44.484;11.314;2023-04-02T17:38:25;99817.63;;;12.81;67.11
60258;BME280;46115;44.484;11.314;2023-04-02T17:42:39;99847.84;;;13.19;67.76
60258;BME280;46115;44.484;11.314;2023-04-02T17:46:51;99854.44;;;12.73;70.36
60258;BME280;46115;44.484;11.314;2023-04-02T17:51:08;99857.50;;;12.55;68.90
60258;BME280;46115;44.484;11.314;2023-04-02T17:55:18;99850.72;;;12.76;66.89
60258;BME280;46115;44.484;11.314;2023-04-02T17:59:59;99864.81;;;12.51;67.96
60258;BME280;46115;44.484;11.314;2023-04-02T18:04:20;99864.59;;;12.54;67.39
60258;BME280;46115;44.484;11.314;2023-04-02T18:08:34;99874.50;;;12.38;66.54
60258;BME280;46115;44.484;11.314;2023-04-02T18:12:52;99873.41;;;12.67;66.35
60258;BME280;46115;44.484;11.314;2023-04-02T18:17:01;99880.31;;;12.57;66.59
60258;BME280;46115;44.484;11.314;2023-04-02T22:06:10;100046.84;;;9.43;78.30
60258;BME280;46115;44.484;11.314;2023-04-02T22:10:13;100049.84;;;9.35;78.08
60258;BME280;46115;44.484;11.314;2023-04-02T22:14:16;100052.94;;;9.78;76.28
60258;BME280;46115;44.484;11.314;2023-04-02T22:18:19;100043.09;;;9.64;75.49
60258;BME280;46115;44.484;11.314;2023-04-02T22:22:23;100042.34;;;9.95;73.75
60258;BME280;46115;44.484;11.314;2023-04-02T22:26:25;100049.41;;;9.95;73.94
60258;BME280;46115;44.484;11.314;2023-04-02T22:30:28;100048.13;;;9.69;75.02
60258;BME280;46115;44.484;11.314;2023-04-02T22:34:31;100047.38;;;9.50;76.17
60258;BME280;46115;44.484;11.314;2023-04-02T22:38:35;100019.97;;;9.00;78.86
60258;BME280;46115;44.484;11.314;2023-04-02T22:42:38;100053.72;;;9.11;78.07
60258;BME280;46115;44.484;11.314;2023-04-02T22:46:40;100049.00;;;9.18;76.52
60258;BME280;46115;44.484;11.314;2023-04-02T22:50:48;100043.47;;;9.22;76.33
60258;BME280;46115;44.484;11.314;2023-04-02T22:54:51;100047.66;;;9.09;76.45
60258;BME280;46115;44.484;11.314;2023-04-02T22:58:54;100045.72;;;9.30;75.38
60258;BME280;46115;44.484;11.314;2023-04-02T23:02:57;100048.00;;;9.37;75.85
60258;BME280;46115;44.484;11.314;2023-04-02T23:06:59;100040.31;;;9.33;75.62
60258;BME280;46115;44.484;11.314;2023-04-02T23:11:04;100038.28;;;9.21;76.56
60258;BME280;46115;44.484;11.314;2023-04-02T23:15:08;100041.31;;;9.13;76.20
60258;BME280;46115;44.484;11.314;2023-04-02T23:19:10;100025.75;;;8.90;78.19
60258;BME280;46115;44.484;11.314;2023-04-02T23:23:13;100027.00;;;8.83;77.52
60258;BME280;46115;44.484;11.314;2023-04-02T23:27:16;100026.53;;;8.92;77.00
60258;BME280;46115;44.484;11.314;2023-04-02T23:31:20;100029.53;;;9.03;76.91
60258;BME280;46115;44.484;11.314;2023-04-02T23:35:23;100029.91;;;9.30;75.36
60258;BME280;46115;44.484;11.314;2023-04-02T23:39:25;100025.88;;;9.05;76.17
60258;BME280;46115;44.484;11.314;2023-04-02T23:43:29;100025.34;;;9.16;75.51
60258;BME280;46115;44.484;11.314;2023-04-02T23:47:31;100029.53;;;9.20;76.05
60258;BME280;46115;44.484;11.314;2023-04-02T23:51:34;100031.94;;;9.25;76.01
60258;BME280;46115;44.484;11.314;2023-04-02T23:55:36;100028.84;;;9.17;75.84
60258;BME280;46115;44.484;11.314;2023-04-02T23:59:40;100024.31;;;9.36;75.60
